createdAt,value
2022-10-22T00:00:25.202Z,3.30
2022-10-22T00:01:25.144Z,3.20
2022-10-22T00:02:25.219Z,3.30
2022-10-22T00:03:25.131Z,4.30
2022-10-22T00:04:25.167Z,3.70
2022-10-22T00:05:25.096Z,3.10
2022-10-22T00:06:25.129Z,3.40
2022-10-22T00:07:25.093Z,2.90
2022-10-22T00:08:25.075Z,3.10
2022-10-22T00:09:25.054Z,3.50
2022-10-22T00:10:25.077Z,3.00
2022-10-22T00:11:25.985Z,3.60
2022-10-22T00:12:25.020Z,3.40
2022-10-22T00:13:25.077Z,3.10
2022-10-22T00:14:25.007Z,2.90
2022-10-22T00:15:24.992Z,3.10
2022-10-22T00:16:25.008Z,3.30
2022-10-22T00:17:24.996Z,3.50
2022-10-22T00:18:25.000Z,3.20
2022-10-22T00:19:24.952Z,3.20
2022-10-22T00:20:24.958Z,3.10
2022-10-22T00:21:24.969Z,3.40
2022-10-22T00:22:24.941Z,3.60
2022-10-22T00:23:24.908Z,3.10
2022-10-22T00:24:24.883Z,3.50
2022-10-22T00:25:24.882Z,3.10
2022-10-22T00:26:24.889Z,3.40
2022-10-22T00:27:24.887Z,3.10
2022-10-22T00:28:24.861Z,2.90
2022-10-22T00:29:24.842Z,2.90
2022-10-22T00:30:24.825Z,3.00
2022-10-22T00:31:24.822Z,3.00
2022-10-22T00:32:24.803Z,3.00
2022-10-22T00:33:24.822Z,3.10
2022-10-22T00:34:24.770Z,3.00
2022-10-22T00:35:24.796Z,3.40
2022-10-22T00:36:24.749Z,3.20
2022-10-22T00:37:24.743Z,3.00
2022-10-22T00:38:24.724Z,3.10
2022-10-22T00:39:24.723Z,3.40
2022-10-22T00:40:24.705Z,3.20
2022-10-22T00:41:24.744Z,3.50
2022-10-22T00:42:24.683Z,2.90
2022-10-22T00:43:24.677Z,3.60
2022-10-22T00:44:34.880Z,3.60
2022-10-22T00:45:24.690Z,3.40
2022-10-22T00:46:24.641Z,3.40
2022-10-22T00:47:24.639Z,3.70
2022-10-22T00:48:24.617Z,3.10
2022-10-22T00:49:24.606Z,3.00
2022-10-22T00:50:24.627Z,3.30
2022-10-22T00:51:24.606Z,3.30
2022-10-22T00:52:24.609Z,3.10
2022-10-22T00:53:24.568Z,2.90
2022-10-22T00:54:24.558Z,3.20
2022-10-22T00:55:24.572Z,3.00
2022-10-22T00:56:24.548Z,3.10
2022-10-22T00:57:24.513Z,2.90
2022-10-22T00:58:24.536Z,3.20
2022-10-22T00:59:24.521Z,3.20
2022-10-22T01:00:24.490Z,3.30
2022-10-22T01:01:24.571Z,3.20
2022-10-22T01:02:24.468Z,3.00
2022-10-22T01:03:24.471Z,3.00
2022-10-22T01:04:24.441Z,3.00
2022-10-22T01:05:24.431Z,2.90
2022-10-22T01:06:24.425Z,3.10
2022-10-22T01:07:24.433Z,2.90
2022-10-22T01:08:24.403Z,3.40
2022-10-22T01:09:24.394Z,3.10
2022-10-22T01:10:24.377Z,3.50
2022-10-22T01:11:24.398Z,3.30
2022-10-22T01:12:24.365Z,2.80
2022-10-22T01:13:24.392Z,3.40
2022-10-22T01:14:24.334Z,3.00
2022-10-22T01:15:24.334Z,3.70
2022-10-22T01:16:24.313Z,3.10
2022-10-22T01:17:24.305Z,3.80
2022-10-22T01:18:24.289Z,3.30
2022-10-22T01:19:24.314Z,3.00
2022-10-22T01:20:24.298Z,3.10
2022-10-22T01:21:24.285Z,3.00
2022-10-22T01:22:24.260Z,3.50
2022-10-22T01:23:24.226Z,3.20
2022-10-22T01:24:24.221Z,3.20
2022-10-22T01:25:24.213Z,3.40
2022-10-22T01:27:24.216Z,3.10
2022-10-22T01:28:24.179Z,3.50
2022-10-22T01:29:24.189Z,3.60
2022-10-22T01:30:24.157Z,3.70
2022-10-22T01:31:24.163Z,3.70
2022-10-22T01:32:24.149Z,3.60
2022-10-22T01:33:24.119Z,4.00
2022-10-22T01:34:24.256Z,3.40
2022-10-22T01:35:24.181Z,3.60
2022-10-22T01:36:24.100Z,4.00
2022-10-22T01:37:24.126Z,3.50
2022-10-22T01:38:24.113Z,3.80
2022-10-22T01:39:24.060Z,3.60
2022-10-22T01:40:24.057Z,3.10
2022-10-22T01:41:24.036Z,3.80
2022-10-22T01:42:24.022Z,3.50
2022-10-22T01:43:24.013Z,3.60
2022-10-22T01:44:24.099Z,3.70
2022-10-22T01:45:23.990Z,4.00
2022-10-22T01:46:23.980Z,3.70
2022-10-22T01:47:23.973Z,3.50
2022-10-22T01:48:23.979Z,3.50
2022-10-22T01:49:23.955Z,3.90
2022-10-22T01:50:23.979Z,3.50
2022-10-22T01:51:23.966Z,3.30
2022-10-22T01:52:23.935Z,3.50
2022-10-22T01:53:23.921Z,3.40
2022-10-22T01:54:23.884Z,3.80
2022-10-22T01:55:23.900Z,3.60
2022-10-22T01:56:23.919Z,3.90
2022-10-22T01:57:23.870Z,3.80
2022-10-22T01:58:23.876Z,3.20
2022-10-22T01:59:23.835Z,3.60
2022-10-22T02:00:23.837Z,3.60
2022-10-22T02:01:23.821Z,3.80
2022-10-22T02:02:23.846Z,4.30
2022-10-22T02:03:24.015Z,3.80
2022-10-22T02:04:23.798Z,4.00
2022-10-22T02:05:23.768Z,3.70
2022-10-22T02:06:23.764Z,3.60
2022-10-22T02:07:23.749Z,3.70
2022-10-22T02:08:23.774Z,3.80
2022-10-22T02:09:23.738Z,3.70
2022-10-22T02:10:23.739Z,3.50
2022-10-22T02:11:23.751Z,3.80
2022-10-22T02:12:23.709Z,3.70
2022-10-22T02:13:23.718Z,3.60
2022-10-22T02:14:23.675Z,3.80
2022-10-22T02:15:23.695Z,3.80
2022-10-22T02:16:23.664Z,3.60
2022-10-22T02:17:23.632Z,3.80
2022-10-22T02:18:23.699Z,3.50
2022-10-22T02:19:23.621Z,3.80
2022-10-22T02:20:23.634Z,3.70
2022-10-22T02:21:23.602Z,3.70
2022-10-22T02:22:23.578Z,3.70
2022-10-22T02:23:23.577Z,3.50
2022-10-22T02:24:23.563Z,3.70
2022-10-22T02:25:23.579Z,3.70
2022-10-22T02:26:23.546Z,3.50
2022-10-22T02:27:26.029Z,3.60
2022-10-22T02:28:23.530Z,3.60
2022-10-22T02:29:23.506Z,3.50
2022-10-22T02:30:23.531Z,3.60
2022-10-22T02:31:23.485Z,3.30
2022-10-22T02:32:23.486Z,3.60
2022-10-22T02:33:23.463Z,4.00
2022-10-22T02:34:23.456Z,3.60
2022-10-22T02:35:23.466Z,4.00
2022-10-22T02:36:23.431Z,3.50
2022-10-22T02:37:23.415Z,3.50
2022-10-22T02:38:23.435Z,3.90
2022-10-22T02:39:23.412Z,3.80
2022-10-22T02:40:23.388Z,3.50
2022-10-22T02:41:23.414Z,3.60
2022-10-22T02:42:23.380Z,3.80
2022-10-22T02:43:23.354Z,3.80
2022-10-22T02:44:23.379Z,3.80
2022-10-22T02:45:24.270Z,3.80
2022-10-22T02:46:23.319Z,4.00
2022-10-22T02:47:24.300Z,3.30
2022-10-22T02:48:23.307Z,3.80
2022-10-22T02:49:23.271Z,3.90
2022-10-22T02:50:23.282Z,3.50
2022-10-22T02:51:23.261Z,3.40
2022-10-22T02:52:23.280Z,3.60
2022-10-22T02:53:23.263Z,3.70
2022-10-22T02:54:23.244Z,3.70
2022-10-22T02:55:24.186Z,3.50
2022-10-22T02:56:23.207Z,3.50
2022-10-22T02:57:23.350Z,3.80
2022-10-22T02:58:23.219Z,3.50
2022-10-22T02:59:23.184Z,3.50
2022-10-22T03:00:23.164Z,3.60
2022-10-22T03:01:23.238Z,3.30
2022-10-22T03:02:23.159Z,3.40
2022-10-22T03:03:23.125Z,3.20
2022-10-22T03:04:23.132Z,3.50
2022-10-22T03:05:23.095Z,3.90
2022-10-22T03:06:23.170Z,3.70
2022-10-22T03:07:23.085Z,3.60
2022-10-22T03:08:23.068Z,4.00
2022-10-22T03:09:24.859Z,4.20
2022-10-22T03:10:23.060Z,3.50
2022-10-22T03:11:23.981Z,3.70
2022-10-22T03:12:23.069Z,3.60
2022-10-22T03:13:23.030Z,3.40
2022-10-22T03:14:23.014Z,3.80
2022-10-22T03:15:23.020Z,3.90
2022-10-22T03:16:23.003Z,3.50
2022-10-22T03:17:22.969Z,4.10
2022-10-22T03:18:22.996Z,3.40
2022-10-22T03:19:22.959Z,3.60
2022-10-22T03:20:22.939Z,3.70
2022-10-22T03:21:22.921Z,4.00
2022-10-22T03:22:22.925Z,3.90
2022-10-22T03:23:22.938Z,3.50
2022-10-22T03:24:22.900Z,3.80
2022-10-22T03:25:22.880Z,3.60
2022-10-22T03:26:22.873Z,4.20
2022-10-22T03:27:22.859Z,3.90
2022-10-22T03:28:22.853Z,3.90
2022-10-22T03:29:22.860Z,4.20
2022-10-22T03:30:22.838Z,4.10
2022-10-22T03:31:22.817Z,4.30
2022-10-22T03:32:22.813Z,4.20
2022-10-22T03:33:22.804Z,4.10
2022-10-22T03:34:22.825Z,4.10
2022-10-22T03:35:22.785Z,4.00
2022-10-22T03:36:22.777Z,4.30
2022-10-22T03:37:22.767Z,4.20
2022-10-22T03:38:22.739Z,4.00
2022-10-22T03:39:22.735Z,3.90
2022-10-22T03:40:22.773Z,4.00
2022-10-22T03:41:22.717Z,4.00
2022-10-22T03:42:22.715Z,4.10
2022-10-22T03:43:22.694Z,4.00
2022-10-22T03:44:22.679Z,4.10
2022-10-22T03:45:22.674Z,3.90
2022-10-22T03:46:22.675Z,3.90
2022-10-22T03:47:22.656Z,4.00
2022-10-22T03:48:22.634Z,4.60
2022-10-22T03:49:22.617Z,4.20
2022-10-22T03:50:22.659Z,4.50
2022-10-22T03:51:22.601Z,4.30
2022-10-22T03:52:22.590Z,4.30
2022-10-22T03:53:22.585Z,4.10
2022-10-22T03:54:22.568Z,4.20
2022-10-22T03:55:22.593Z,4.20
2022-10-22T03:56:22.636Z,4.20
2022-10-22T03:57:22.523Z,4.00
2022-10-22T03:58:22.523Z,4.70
2022-10-22T03:59:22.539Z,4.40
2022-10-22T04:00:22.501Z,4.30
2022-10-22T04:01:22.636Z,3.80
2022-10-22T04:02:22.501Z,4.20
2022-10-22T04:03:22.466Z,4.20
2022-10-22T04:04:22.462Z,4.30
2022-10-22T04:05:22.457Z,4.30
2022-10-22T04:06:22.434Z,4.20
2022-10-22T04:07:22.444Z,4.30
2022-10-22T04:08:22.403Z,4.00
2022-10-22T04:09:22.415Z,4.30
2022-10-22T04:10:22.399Z,4.10
2022-10-22T04:11:22.380Z,4.30
2022-10-22T04:12:22.418Z,4.40
2022-10-22T04:13:22.349Z,4.80
2022-10-22T04:14:22.365Z,4.80
2022-10-22T04:15:23.809Z,4.60
2022-10-22T04:16:24.026Z,4.50
2022-10-22T04:17:22.311Z,4.40
2022-10-22T04:18:22.327Z,4.20
2022-10-22T04:19:22.283Z,4.00
2022-10-22T04:20:24.247Z,4.50
2022-10-22T04:21:22.277Z,4.60
2022-10-22T04:22:22.298Z,4.20
2022-10-22T04:23:22.256Z,4.70
2022-10-22T04:24:22.238Z,4.70
2022-10-22T04:25:22.229Z,4.60
2022-10-22T04:26:22.410Z,4.70
2022-10-22T04:27:22.203Z,4.70
2022-10-22T04:28:22.210Z,4.70
2022-10-22T04:29:22.171Z,4.70
2022-10-22T04:30:22.181Z,4.70
2022-10-22T04:31:22.181Z,4.40
2022-10-22T04:32:22.149Z,4.80
2022-10-22T04:33:22.131Z,4.90
2022-10-22T04:34:22.135Z,4.30
2022-10-22T04:35:22.153Z,4.90
2022-10-22T04:36:22.141Z,4.70
2022-10-22T04:37:22.089Z,5.00
2022-10-22T04:38:23.037Z,4.70
2022-10-22T04:39:22.083Z,5.30
2022-10-22T04:40:22.083Z,5.00
2022-10-22T04:41:22.053Z,4.70
2022-10-22T04:42:22.073Z,5.10
2022-10-22T04:43:22.067Z,5.20
2022-10-22T04:44:22.022Z,4.90
2022-10-22T04:45:22.020Z,5.20
2022-10-22T04:46:21.998Z,5.00
2022-10-22T04:47:21.975Z,5.10
2022-10-22T04:48:22.154Z,5.10
2022-10-22T04:49:21.957Z,5.50
2022-10-22T04:50:22.007Z,5.00
2022-10-22T04:51:22.057Z,5.10
2022-10-22T04:52:21.924Z,5.10
2022-10-22T04:53:21.929Z,4.80
2022-10-22T04:54:21.946Z,5.00
2022-10-22T04:55:21.952Z,5.10
2022-10-22T04:56:21.877Z,5.80
2022-10-22T04:57:21.879Z,5.10
2022-10-22T04:58:21.858Z,4.90
2022-10-22T04:59:21.869Z,5.50
2022-10-22T05:00:21.846Z,5.50
2022-10-22T05:01:22.017Z,5.40
2022-10-22T05:02:21.822Z,5.40
2022-10-22T05:03:21.851Z,5.40
2022-10-22T05:04:21.809Z,4.80
2022-10-22T05:05:21.778Z,5.90
2022-10-22T05:06:21.789Z,5.50
2022-10-22T05:07:21.955Z,5.30
2022-10-22T05:08:21.746Z,5.10
2022-10-22T05:09:21.782Z,5.10
2022-10-22T05:10:21.731Z,5.40
2022-10-22T05:11:21.715Z,5.10
2022-10-22T05:12:21.719Z,5.40
2022-10-22T05:13:21.747Z,6.10
2022-10-22T05:14:21.673Z,5.60
2022-10-22T05:15:21.711Z,5.70
2022-10-22T05:16:21.657Z,5.90
2022-10-22T05:17:21.644Z,5.50
2022-10-22T05:18:22.642Z,5.60
2022-10-22T05:19:21.673Z,5.30
2022-10-22T05:20:21.604Z,5.50
2022-10-22T05:21:21.614Z,5.50
2022-10-22T05:22:21.606Z,5.60
2022-10-22T05:23:21.593Z,5.70
2022-10-22T05:24:21.584Z,5.00
2022-10-22T05:25:21.576Z,5.30
2022-10-22T05:26:21.539Z,5.40
2022-10-22T05:27:21.627Z,5.50
2022-10-22T05:28:21.526Z,5.70
2022-10-22T05:29:21.507Z,5.80
2022-10-22T05:30:21.505Z,6.30
2022-10-22T05:31:21.495Z,5.50
2022-10-22T05:32:21.488Z,5.50
2022-10-22T05:33:24.027Z,5.30
2022-10-22T05:34:21.491Z,5.70
2022-10-22T05:35:21.459Z,5.30
2022-10-22T05:36:21.461Z,5.40
2022-10-22T05:37:21.449Z,5.20
2022-10-22T05:38:21.440Z,5.50
2022-10-22T05:39:22.384Z,5.90
2022-10-22T05:40:30.590Z,5.50
2022-10-22T05:41:22.384Z,6.20
2022-10-22T05:42:21.361Z,5.30
2022-10-22T05:43:21.361Z,5.40
2022-10-22T05:44:21.373Z,5.90
2022-10-22T05:45:23.003Z,5.80
2022-10-22T05:46:22.860Z,5.90
2022-10-22T05:47:21.313Z,5.90
2022-10-22T05:48:21.334Z,5.80
2022-10-22T05:49:21.317Z,5.50
2022-10-22T05:50:21.313Z,5.70
2022-10-22T05:51:21.283Z,6.20
2022-10-22T05:52:21.265Z,5.70
2022-10-22T05:53:21.243Z,6.00
2022-10-22T05:54:21.264Z,5.70
2022-10-22T05:55:21.224Z,6.00
2022-10-22T05:56:21.216Z,6.10
2022-10-22T05:57:21.200Z,5.70
2022-10-22T05:58:21.185Z,6.20
2022-10-22T05:59:21.186Z,6.00
2022-10-22T06:00:21.189Z,6.50
2022-10-22T06:01:21.162Z,6.40
2022-10-22T06:02:21.211Z,5.80
2022-10-22T06:03:21.137Z,6.70
2022-10-22T06:04:21.117Z,6.40
2022-10-22T06:05:21.106Z,6.60
2022-10-22T06:06:21.122Z,6.20
2022-10-22T06:07:21.479Z,6.30
2022-10-22T06:08:21.108Z,6.90
2022-10-22T06:09:21.064Z,6.20
2022-10-22T06:10:21.062Z,5.90
2022-10-22T06:11:21.033Z,6.70
2022-10-22T06:12:21.033Z,6.80
2022-10-22T06:13:21.019Z,6.90
2022-10-22T06:14:21.065Z,6.80
2022-10-22T06:15:21.001Z,7.30
2022-10-22T06:16:20.990Z,6.80
2022-10-22T06:17:21.022Z,7.30
2022-10-22T06:18:21.218Z,7.70
2022-10-22T06:19:20.984Z,7.80
2022-10-22T06:20:20.932Z,7.60
2022-10-22T06:21:20.922Z,7.40
2022-10-22T06:22:20.903Z,7.80
2022-10-22T06:23:20.927Z,7.70
2022-10-22T06:24:20.920Z,7.90
2022-10-22T06:25:20.933Z,7.70
2022-10-22T06:26:20.875Z,7.50
2022-10-22T06:27:20.912Z,7.90
2022-10-22T06:28:20.883Z,7.80
2022-10-22T06:29:21.784Z,7.80
2022-10-22T06:30:20.836Z,8.00
2022-10-22T06:31:20.822Z,7.70
2022-10-22T06:32:20.806Z,7.80
2022-10-22T06:33:20.825Z,7.30
2022-10-22T06:34:20.779Z,8.10
2022-10-22T06:35:20.764Z,7.60
2022-10-22T06:38:33.374Z,6.70
2022-10-22T06:39:32.646Z,6.90
2022-10-22T06:40:32.576Z,6.40
2022-10-22T06:41:32.528Z,7.10
2022-10-22T06:53:06.672Z,5.40
2022-10-22T06:54:04.979Z,5.50
2022-10-22T06:55:05.013Z,6.10
2022-10-22T06:56:04.971Z,5.70
2022-10-22T06:57:05.032Z,5.10
2022-10-22T06:58:04.940Z,5.00
2022-10-22T06:59:04.950Z,5.20
2022-10-22T07:00:04.951Z,5.00
2022-10-22T07:01:06.452Z,5.10
2022-10-22T07:02:04.912Z,4.90
2022-10-22T07:03:04.915Z,5.20
2022-10-22T07:04:04.889Z,4.90
2022-10-22T07:05:04.870Z,4.50
2022-10-22T07:06:04.858Z,4.70
2022-10-22T07:07:04.861Z,5.20
2022-10-22T07:08:04.832Z,4.70
2022-10-22T07:09:04.900Z,4.60
2022-10-22T07:10:05.548Z,4.60
2022-10-22T07:11:04.813Z,4.60
2022-10-22T07:12:04.785Z,4.70
2022-10-22T07:13:04.807Z,4.50
2022-10-22T07:14:04.766Z,4.80
2022-10-22T07:15:04.766Z,4.70
2022-10-22T07:16:04.752Z,4.50
2022-10-22T07:17:04.735Z,4.40
2022-10-22T07:18:04.733Z,4.50
2022-10-22T07:19:04.755Z,4.50
2022-10-22T07:20:05.682Z,4.80
2022-10-22T07:21:04.686Z,4.50
2022-10-22T07:22:04.720Z,4.50
2022-10-22T07:23:04.672Z,4.20
2022-10-22T07:24:04.693Z,4.00
2022-10-22T07:25:07.362Z,4.10
2022-10-22T07:26:04.709Z,3.90
2022-10-22T07:27:08.139Z,4.20
2022-10-22T07:28:06.650Z,4.10
2022-10-22T07:29:04.596Z,4.30
2022-10-22T07:30:04.594Z,4.00
2022-10-22T07:31:04.604Z,4.00
2022-10-22T07:32:04.584Z,3.90
2022-10-22T07:33:04.563Z,4.50
2022-10-22T07:34:04.552Z,4.30
2022-10-22T07:35:05.478Z,4.30
2022-10-22T07:36:04.536Z,4.20
2022-10-22T07:37:05.524Z,4.20
2022-10-22T07:38:04.550Z,3.80
2022-10-22T07:39:04.488Z,4.00
2022-10-22T07:40:04.483Z,4.30
2022-10-22T07:41:04.464Z,3.80
2022-10-22T07:42:04.467Z,4.20
2022-10-22T07:43:05.488Z,4.10
2022-10-22T07:44:04.448Z,3.70
2022-10-22T07:45:04.425Z,3.50
2022-10-22T07:46:04.436Z,3.60
2022-10-22T07:47:05.846Z,4.00
2022-10-22T07:48:05.530Z,4.10
2022-10-22T07:49:05.340Z,3.90
2022-10-22T07:50:04.472Z,3.70
2022-10-22T07:51:04.383Z,4.30
2022-10-22T07:52:04.372Z,4.10
2022-10-22T07:53:04.336Z,4.00
2022-10-22T07:54:05.130Z,4.40
2022-10-22T07:55:04.384Z,3.60
2022-10-22T07:56:04.319Z,3.70
2022-10-22T07:57:05.252Z,3.90
2022-10-22T07:58:04.285Z,4.20
2022-10-22T07:59:04.330Z,4.00
2022-10-22T08:00:04.282Z,4.30
2022-10-22T08:01:04.367Z,4.00
2022-10-22T08:02:04.314Z,4.10
2022-10-22T08:03:04.242Z,4.10
2022-10-22T08:04:04.221Z,3.80
2022-10-22T08:05:04.196Z,3.60
2022-10-22T08:06:04.203Z,4.40
2022-10-22T08:07:04.209Z,3.90
2022-10-22T08:08:04.267Z,3.60
2022-10-22T08:09:04.188Z,3.70
2022-10-22T08:10:05.607Z,3.50
2022-10-22T08:11:04.170Z,3.70
2022-10-22T08:12:05.073Z,3.80
2022-10-22T08:13:04.118Z,3.40
2022-10-22T08:14:04.103Z,3.60
2022-10-22T08:15:04.110Z,3.10
2022-10-22T08:16:04.112Z,3.20
2022-10-22T08:17:04.109Z,3.60
2022-10-22T08:18:04.087Z,3.50
2022-10-22T08:19:04.035Z,3.60
2022-10-22T08:20:04.036Z,3.60
2022-10-22T08:21:04.037Z,3.70
2022-10-22T08:22:04.009Z,3.50
2022-10-22T08:23:04.053Z,3.10
2022-10-22T08:24:04.054Z,3.30
2022-10-22T08:25:03.991Z,3.30
2022-10-22T08:26:03.968Z,3.00
2022-10-22T08:27:04.910Z,3.70
2022-10-22T08:28:03.949Z,3.40
2022-10-22T08:29:03.987Z,3.70
2022-10-22T08:30:03.935Z,3.20
2022-10-22T08:31:03.921Z,3.50
2022-10-22T08:32:03.904Z,3.10
2022-10-22T08:33:04.017Z,2.70
2022-10-22T08:34:03.885Z,2.90
2022-10-22T08:35:03.921Z,2.60
2022-10-22T08:36:03.851Z,2.70
2022-10-22T08:37:03.865Z,2.40
2022-10-22T08:38:03.852Z,2.80
2022-10-22T08:39:03.827Z,2.60
2022-10-22T08:40:03.832Z,2.20
2022-10-22T08:41:03.830Z,2.60
2022-10-22T08:42:03.811Z,2.50
2022-10-22T08:43:03.781Z,2.70
2022-10-22T08:44:03.790Z,2.50
2022-10-22T08:45:03.783Z,2.50
2022-10-22T08:46:03.750Z,2.80
2022-10-22T08:47:03.729Z,2.70
2022-10-22T08:48:03.764Z,2.30
2022-10-22T08:49:04.760Z,2.50
2022-10-22T08:50:03.722Z,2.40
2022-10-22T08:51:03.697Z,2.50
2022-10-22T08:52:03.686Z,2.40
2022-10-22T08:53:03.667Z,2.40
2022-10-22T08:54:03.719Z,2.30
2022-10-22T08:55:03.642Z,2.50
2022-10-22T08:56:03.636Z,2.50
2022-10-22T08:57:03.616Z,2.40
2022-10-22T08:58:03.626Z,2.20
2022-10-22T08:59:03.667Z,2.60
2022-10-22T09:00:03.587Z,2.90
2022-10-22T09:01:04.530Z,2.80
2022-10-22T09:02:03.567Z,2.60
2022-10-22T09:03:03.559Z,2.70
2022-10-22T09:04:03.560Z,2.40
2022-10-22T09:05:03.559Z,2.40
2022-10-22T09:06:03.543Z,2.20
2022-10-22T09:07:03.519Z,2.30
2022-10-22T09:08:03.539Z,2.80
2022-10-22T09:09:03.556Z,2.30
2022-10-22T09:10:03.493Z,2.60
2022-10-22T09:11:03.469Z,2.50
2022-10-22T09:12:03.491Z,2.50
2022-10-22T09:13:03.461Z,2.20
2022-10-22T09:14:03.515Z,2.30
2022-10-22T09:15:03.432Z,2.60
2022-10-22T09:16:04.413Z,2.20
2022-10-22T09:17:03.422Z,2.00
2022-10-22T09:18:03.417Z,2.20
2022-10-22T09:19:03.417Z,2.40
2022-10-22T09:20:03.371Z,2.10
2022-10-22T09:21:05.335Z,2.40
2022-10-22T09:22:03.365Z,2.30
2022-10-22T09:23:03.364Z,1.90
2022-10-22T09:24:03.348Z,2.00
2022-10-22T09:25:03.334Z,2.00
2022-10-22T09:26:03.363Z,2.00
2022-10-22T09:27:03.297Z,2.30
2022-10-22T09:28:03.309Z,2.60
2022-10-22T09:29:03.290Z,2.20
2022-10-22T09:30:03.440Z,2.30
2022-10-22T09:31:03.282Z,2.40
2022-10-22T09:32:03.252Z,2.10
2022-10-22T09:33:03.249Z,2.30
2022-10-22T09:34:03.223Z,2.30
2022-10-22T09:35:03.248Z,2.40
2022-10-22T09:36:03.217Z,2.40
2022-10-22T09:37:03.181Z,2.40
2022-10-22T09:38:03.174Z,2.50
2022-10-22T09:39:03.208Z,2.30
2022-10-22T09:40:03.140Z,2.20
2022-10-22T09:41:03.237Z,2.40
2022-10-22T09:42:03.127Z,2.30
2022-10-22T09:43:03.112Z,2.00
2022-10-22T09:44:03.110Z,2.80
2022-10-22T09:45:03.150Z,2.40
2022-10-22T09:46:03.150Z,2.50
2022-10-22T09:47:03.092Z,2.30
2022-10-22T09:48:03.672Z,1.80
2022-10-22T09:49:03.056Z,2.50
2022-10-22T09:50:03.079Z,2.20
2022-10-22T09:51:03.099Z,2.10
2022-10-22T09:52:03.036Z,2.20
2022-10-22T09:53:02.997Z,2.00
2022-10-22T09:54:03.076Z,2.20
2022-10-22T09:55:03.048Z,2.00
2022-10-22T09:56:02.990Z,1.80
2022-10-22T09:57:02.964Z,2.10
2022-10-22T09:58:02.945Z,2.40
2022-10-22T09:59:02.978Z,1.80
2022-10-22T10:00:02.927Z,2.20
2022-10-22T10:01:02.997Z,1.90
2022-10-22T10:02:13.607Z,1.90
2022-10-22T10:03:03.936Z,1.90
2022-10-22T10:04:06.908Z,2.10
2022-10-22T10:05:03.897Z,1.90
2022-10-22T10:06:05.070Z,2.00
2022-10-22T10:07:02.871Z,2.40
2022-10-22T10:08:02.854Z,2.50
2022-10-22T10:09:02.918Z,2.00
2022-10-22T10:10:02.809Z,2.20
2022-10-22T10:11:02.916Z,1.90
2022-10-22T10:12:02.792Z,2.00
2022-10-22T10:13:02.783Z,1.80
2022-10-22T10:14:02.787Z,2.20
2022-10-22T10:15:02.766Z,2.00
2022-10-22T10:16:02.742Z,2.10
2022-10-22T10:17:02.766Z,2.00
2022-10-22T10:18:02.724Z,1.90
2022-10-22T10:19:02.713Z,2.30
2022-10-22T10:20:04.060Z,1.80
2022-10-22T10:21:02.794Z,2.00
2022-10-22T10:22:02.683Z,1.80
2022-10-22T10:23:02.666Z,2.60
2022-10-22T10:24:02.676Z,1.90
2022-10-22T10:25:02.655Z,1.70
2022-10-22T10:26:02.678Z,1.80
2022-10-22T10:27:02.644Z,2.00
2022-10-22T10:28:02.776Z,2.00
2022-10-22T10:29:02.626Z,2.80
2022-10-22T10:30:02.625Z,2.00
2022-10-22T10:31:03.525Z,2.20
2022-10-22T10:32:02.584Z,2.30
2022-10-22T10:33:02.935Z,1.80
2022-10-22T10:34:02.550Z,2.00
2022-10-22T10:35:02.539Z,1.90
2022-10-22T10:36:02.518Z,1.70
2022-10-22T10:37:02.510Z,2.30
2022-10-22T10:38:02.501Z,2.50
2022-10-22T10:39:02.521Z,2.00
2022-10-22T10:40:02.493Z,2.00
2022-10-22T10:41:02.500Z,2.00
2022-10-22T10:42:02.450Z,1.80
2022-10-22T10:43:02.462Z,2.10
2022-10-22T10:44:02.451Z,1.80
2022-10-22T10:45:02.458Z,1.50
2022-10-22T10:46:02.407Z,2.00
2022-10-22T10:47:02.442Z,1.70
2022-10-22T10:48:02.376Z,1.60
2022-10-22T10:49:02.501Z,2.00
2022-10-22T10:50:02.352Z,1.90
2022-10-22T10:51:03.197Z,1.60
2022-10-22T10:52:02.357Z,2.00
2022-10-22T10:53:02.377Z,1.60
2022-10-22T10:54:02.338Z,1.60
2022-10-22T10:55:02.333Z,1.70
2022-10-22T10:56:02.318Z,1.90
2022-10-22T10:57:02.338Z,1.70
2022-10-22T10:58:02.369Z,1.80
2022-10-22T10:59:02.307Z,1.50
2022-10-22T11:00:02.288Z,1.50
2022-10-22T11:01:02.257Z,1.70
2022-10-22T11:02:03.698Z,1.40
2022-10-22T11:03:04.151Z,1.80
2022-10-22T11:04:02.217Z,1.70
2022-10-22T11:05:03.048Z,1.70
2022-10-22T11:06:02.213Z,1.90
2022-10-22T11:07:10.925Z,1.40
2022-10-22T11:08:03.178Z,1.70
2022-10-22T11:09:02.788Z,1.90
2022-10-22T11:10:02.742Z,1.90
2022-10-22T11:11:02.194Z,1.70
2022-10-22T11:12:03.598Z,1.40
2022-10-22T11:13:02.129Z,1.80
2022-10-22T11:14:02.105Z,1.70
2022-10-22T11:15:02.111Z,1.90
2022-10-22T11:16:02.121Z,1.60
2022-10-22T11:17:02.622Z,1.40
2022-10-22T11:18:02.170Z,1.50
2022-10-22T11:19:02.081Z,1.70
2022-10-22T11:20:02.046Z,2.00
2022-10-22T11:21:02.488Z,1.70
2022-10-22T11:22:02.963Z,1.70
2022-10-22T11:23:18.806Z,1.60
2022-10-22T11:24:03.036Z,1.70
2022-10-22T11:25:02.049Z,1.90
2022-10-22T11:26:01.983Z,1.60
2022-10-22T11:27:01.993Z,1.80
2022-10-22T11:28:07.815Z,1.80
2022-10-22T11:29:02.949Z,1.60
2022-10-22T11:30:02.012Z,1.30
2022-10-22T11:31:01.953Z,1.50
2022-10-22T11:32:02.045Z,1.70
2022-10-22T11:33:01.906Z,1.60
2022-10-22T11:34:09.935Z,1.50
2022-10-22T11:35:02.869Z,1.50
2022-10-22T11:36:01.867Z,1.70
2022-10-22T11:37:01.887Z,2.00
2022-10-22T11:38:02.822Z,2.00
2022-10-22T11:39:01.838Z,1.60
2022-10-22T11:40:01.813Z,1.50
2022-10-22T11:41:01.825Z,1.80
2022-10-22T11:42:01.789Z,1.60
2022-10-22T11:43:01.807Z,1.70
2022-10-22T11:44:01.771Z,1.80
2022-10-22T11:45:01.781Z,1.90
2022-10-22T11:46:01.881Z,1.80
2022-10-22T11:47:01.761Z,1.50
2022-10-22T11:48:12.009Z,1.60
2022-10-22T11:49:01.715Z,1.70
2022-10-22T11:50:01.729Z,1.80
2022-10-22T11:51:01.734Z,1.60
2022-10-22T11:52:04.357Z,1.70
2022-10-22T11:53:01.729Z,1.70
2022-10-22T11:54:01.706Z,1.60
2022-10-22T11:55:02.004Z,1.70
2022-10-22T11:56:01.634Z,1.60
2022-10-22T11:57:01.633Z,1.40
2022-10-22T11:58:01.614Z,1.20
2022-10-22T11:59:01.632Z,1.60
2022-10-22T12:00:01.625Z,1.40
2022-10-22T12:01:01.601Z,1.80
2022-10-22T12:02:01.586Z,1.60
2022-10-22T12:03:03.318Z,1.90
2022-10-22T12:04:01.548Z,1.60
2022-10-22T12:05:02.480Z,1.70
2022-10-22T12:06:01.743Z,1.80
2022-10-22T12:07:01.824Z,1.50
2022-10-22T12:08:01.504Z,1.60
2022-10-22T12:09:01.863Z,1.50
2022-10-22T12:10:01.622Z,1.70
2022-10-22T12:11:01.484Z,1.50
2022-10-22T12:12:01.458Z,1.80
2022-10-22T12:13:01.520Z,1.40
2022-10-22T12:14:01.791Z,1.60
2022-10-22T12:15:02.080Z,1.70
2022-10-22T12:16:01.730Z,1.90
2022-10-22T12:17:01.413Z,1.80
2022-10-22T12:18:02.392Z,1.70
2022-10-22T12:19:02.247Z,1.70
2022-10-22T12:20:02.446Z,1.60
2022-10-22T12:21:01.565Z,1.50
2022-10-22T12:22:01.431Z,1.60
2022-10-22T12:23:01.388Z,1.60
2022-10-22T12:24:01.332Z,1.40
2022-10-22T12:25:01.365Z,1.20
2022-10-22T12:26:01.314Z,1.50
2022-10-22T12:27:01.325Z,1.50
2022-10-22T12:28:01.294Z,1.80
2022-10-22T12:29:01.276Z,1.60
2022-10-22T12:30:01.475Z,1.70
2022-10-22T12:31:02.090Z,1.70
2022-10-22T12:32:01.516Z,1.60
2022-10-22T12:33:01.350Z,1.50
2022-10-22T12:34:01.261Z,1.70
2022-10-22T12:35:01.626Z,1.40
2022-10-22T12:36:01.476Z,1.70
2022-10-22T12:37:01.227Z,1.80
2022-10-22T12:38:02.167Z,1.60
2022-10-22T12:39:01.192Z,1.60
2022-10-22T12:40:01.178Z,2.10
2022-10-22T12:41:01.847Z,1.60
2022-10-22T12:42:01.164Z,1.70
2022-10-22T12:43:01.395Z,1.80
2022-10-22T12:44:02.581Z,1.80
2022-10-22T12:45:01.196Z,1.40
2022-10-22T12:46:01.930Z,1.50
2022-10-22T12:47:02.550Z,1.50
2022-10-22T12:48:01.546Z,1.80
2022-10-22T12:49:01.057Z,1.40
2022-10-22T12:50:01.066Z,1.90
2022-10-22T12:51:02.510Z,1.60
2022-10-22T12:52:01.044Z,1.50
2022-10-22T12:53:01.027Z,1.30
2022-10-22T12:54:01.012Z,1.60
2022-10-22T12:55:02.021Z,1.70
2022-10-22T12:56:01.005Z,1.80
2022-10-22T12:57:01.005Z,1.20
2022-10-22T12:58:00.983Z,1.40
2022-10-22T12:59:01.044Z,1.40
2022-10-22T13:01:02.466Z,1.70
2022-10-22T13:02:00.970Z,1.40
2022-10-22T13:03:00.907Z,1.40
2022-10-22T13:04:00.909Z,1.40
2022-10-22T13:05:01.911Z,1.60
2022-10-22T13:06:00.968Z,1.50
2022-10-22T13:07:00.856Z,1.20
2022-10-22T13:08:00.858Z,1.50
2022-10-22T13:09:00.980Z,1.40
2022-10-22T13:10:02.293Z,1.20
2022-10-22T13:11:02.289Z,1.30
2022-10-22T13:12:00.839Z,1.30
2022-10-22T13:13:01.619Z,1.60
2022-10-22T13:14:00.781Z,1.40
2022-10-22T13:15:00.823Z,1.50
2022-10-22T13:16:00.761Z,1.30
2022-10-22T13:17:00.861Z,1.50
2022-10-22T13:18:00.732Z,1.50
2022-10-22T13:19:00.892Z,1.50
2022-10-22T13:20:00.711Z,1.40
2022-10-22T13:21:00.713Z,1.70
2022-10-22T13:22:00.704Z,1.50
2022-10-22T13:23:00.751Z,1.60
2022-10-22T13:24:00.665Z,2.00
2022-10-22T13:25:00.680Z,1.50
2022-10-22T13:26:00.670Z,1.50
2022-10-22T13:27:01.624Z,1.60
2022-10-22T13:28:00.623Z,1.50
2022-10-22T13:29:01.616Z,1.60
2022-10-22T13:30:00.630Z,1.30
2022-10-22T13:31:01.607Z,1.50
2022-10-22T13:32:00.796Z,1.60
2022-10-22T13:33:00.578Z,1.80